createdAt,value
2018-11-21T00:01:03.515Z,12.40
2018-11-21T00:03:43.537Z,12.10
2018-11-21T00:06:23.156Z,10.90
2018-11-21T00:09:04.111Z,12.60
2018-11-21T00:11:43.895Z,12.97
2018-11-21T00:14:23.626Z,13.03
2018-11-21T00:17:03.418Z,13.60
2018-11-21T00:19:43.502Z,13.00
2018-11-21T00:22:23.071Z,12.00
2018-11-21T00:25:02.694Z,11.30
2018-11-21T00:27:42.542Z,11.57
2018-11-21T00:30:22.145Z,11.10
2018-11-21T00:33:02.313Z,11.10
2018-11-21T00:35:42.173Z,10.77
2018-11-21T00:38:21.858Z,11.73
2018-11-21T00:41:02.445Z,12.57
2018-11-21T00:43:42.571Z,12.63
2018-11-21T00:46:22.592Z,13.30
2018-11-21T00:49:02.370Z,11.57
2018-11-21T00:51:42.665Z,11.93
2018-11-21T00:54:22.561Z,11.50
2018-11-21T00:57:02.393Z,12.10
2018-11-21T00:59:42.575Z,12.80
2018-11-21T01:02:22.095Z,12.20
2018-11-21T01:05:01.732Z,12.23
2018-11-21T01:07:41.414Z,13.17
2018-11-21T01:10:21.434Z,12.87
2018-11-21T01:13:01.197Z,11.97
2018-11-21T01:15:41.144Z,12.00
2018-11-21T01:18:21.813Z,11.57
2018-11-21T01:21:02.226Z,10.90
2018-11-21T01:23:42.128Z,11.08
2018-11-21T01:26:22.590Z,12.27
2018-11-21T01:29:02.533Z,12.60
2018-11-21T01:31:42.678Z,11.77
2018-11-21T01:34:45.772Z,13.27
2018-11-21T01:37:25.451Z,11.30
2018-11-21T01:40:05.299Z,11.97
2018-11-21T01:42:45.291Z,11.90
2018-11-21T01:45:25.030Z,11.17
2018-11-21T01:48:04.503Z,12.60
2018-11-21T01:50:44.280Z,11.57
2018-11-21T01:53:24.242Z,11.13
2018-11-21T01:56:04.064Z,13.33
2018-11-21T01:58:44.332Z,12.00
2018-11-21T02:01:24.470Z,13.47
2018-11-21T02:04:04.652Z,13.17
2018-11-21T02:06:44.029Z,13.30
2018-11-21T02:09:24.292Z,12.50
2018-11-21T02:12:04.216Z,9.83
2018-11-21T02:14:44.275Z,10.93
2018-11-21T02:17:24.247Z,11.43
2018-11-21T02:20:03.790Z,11.97
2018-11-21T02:22:43.703Z,11.47
2018-11-21T02:25:24.177Z,12.53
2018-11-21T02:28:04.608Z,10.47
2018-11-21T02:30:45.165Z,12.67
2018-11-21T02:33:25.797Z,11.93
2018-11-21T02:36:05.537Z,11.13
2018-11-21T02:38:45.517Z,11.03
2018-11-21T02:41:25.025Z,12.00
2018-11-21T02:44:05.098Z,11.87
2018-11-21T02:46:45.206Z,14.10
2018-11-21T02:49:25.545Z,13.80
2018-11-21T02:52:05.261Z,12.87
2018-11-21T02:54:44.914Z,14.07
2018-11-21T02:57:28.882Z,13.47
2018-11-21T03:00:09.109Z,14.13
2018-11-21T03:02:49.735Z,14.53
2018-11-21T03:05:29.239Z,13.83
2018-11-21T03:08:09.200Z,14.73
2018-11-21T03:10:48.966Z,14.20
2018-11-21T03:13:29.325Z,13.20
2018-11-21T03:16:09.640Z,14.50
2018-11-21T03:18:49.396Z,12.13
2018-11-21T03:21:29.489Z,14.53
2018-11-21T03:24:10.036Z,15.07
2018-11-21T03:26:50.456Z,15.63
2018-11-21T03:29:30.488Z,17.10
2018-11-21T03:32:10.601Z,16.00
2018-11-21T03:34:50.172Z,14.97
2018-11-21T03:37:30.088Z,15.83
2018-11-21T03:40:09.700Z,16.17
2018-11-21T03:42:49.784Z,15.67
2018-11-21T03:45:29.612Z,15.43
2018-11-21T03:48:09.506Z,17.40
2018-11-21T03:50:49.792Z,16.30
2018-11-21T03:53:29.965Z,16.47
2018-11-21T03:56:30.605Z,17.77
2018-11-21T03:59:19.047Z,17.67
2018-11-21T04:01:59.101Z,16.83
2018-11-21T04:04:38.719Z,18.67
2018-11-21T04:07:19.040Z,17.30
2018-11-21T04:09:59.027Z,16.17
2018-11-21T04:12:39.459Z,18.03
2018-11-21T04:15:19.472Z,19.07
2018-11-21T04:17:59.389Z,19.13
2018-11-21T04:20:39.365Z,19.17
2018-11-21T04:23:19.865Z,20.57
2018-11-21T04:25:59.736Z,19.47
2018-11-21T04:28:39.488Z,17.67
2018-11-21T04:31:20.041Z,19.60
2018-11-21T04:34:00.253Z,18.30
2018-11-21T04:36:40.175Z,19.43
2018-11-21T04:39:19.696Z,21.50
2018-11-21T04:41:59.417Z,19.97
2018-11-21T04:44:39.158Z,18.87
2018-11-21T04:47:18.718Z,16.57
2018-11-21T04:49:59.676Z,19.20
2018-11-21T04:52:39.630Z,19.33
2018-11-21T04:55:19.406Z,20.10
2018-11-21T04:57:59.570Z,17.27
2018-11-21T05:00:39.658Z,17.47
2018-11-21T05:03:19.973Z,18.43
2018-11-21T05:05:59.482Z,19.10
2018-11-21T05:08:40.223Z,19.30
2018-11-21T05:11:21.113Z,19.97
2018-11-21T05:14:01.181Z,20.00
2018-11-21T05:16:40.912Z,21.37
2018-11-21T05:19:20.876Z,19.70
2018-11-21T05:22:01.037Z,20.00
2018-11-21T05:24:41.306Z,21.20
2018-11-21T05:27:21.476Z,20.23
2018-11-21T05:30:01.205Z,19.87
2018-11-21T05:32:40.902Z,22.07
2018-11-21T05:35:20.520Z,21.17
2018-11-21T05:38:00.524Z,23.10
2018-11-21T05:40:40.026Z,22.60
2018-11-21T05:43:19.665Z,22.47
2018-11-21T05:45:59.699Z,22.67
2018-11-21T05:48:40.459Z,22.40
2018-11-21T05:51:21.096Z,22.53
2018-11-21T05:54:01.323Z,23.17
2018-11-21T05:56:41.341Z,24.03
2018-11-21T05:59:21.349Z,22.93
2018-11-21T06:02:01.285Z,24.67
2018-11-21T06:04:41.560Z,25.63
2018-11-21T06:07:21.106Z,23.20
2018-11-21T06:10:01.309Z,23.47
2018-11-21T06:12:41.228Z,24.13
2018-11-21T06:15:21.064Z,19.53
2018-11-21T06:20:51.460Z,23.03
2018-11-21T06:26:23.986Z,19.20
2018-11-21T06:29:23.567Z,20.87
2018-11-21T06:32:03.236Z,20.77
2018-11-21T06:34:43.965Z,21.80
2018-11-21T06:37:24.440Z,19.40
2018-11-21T06:40:04.515Z,21.17
2018-11-21T06:43:03.944Z,22.90
2018-11-21T06:45:44.218Z,20.63
2018-11-21T06:48:23.836Z,21.13
2018-11-21T06:51:03.956Z,20.10
2018-11-21T06:53:43.754Z,19.57
2018-11-21T06:56:23.565Z,21.23
2018-11-21T06:59:03.875Z,21.00
2018-11-21T07:01:44.389Z,22.00
2018-11-21T07:04:24.095Z,21.77
2018-11-21T07:07:04.365Z,24.63
2018-11-21T07:09:44.846Z,24.27
2018-11-21T07:12:24.724Z,22.47
2018-11-21T07:15:04.359Z,25.57
2018-11-21T07:17:44.224Z,23.50
2018-11-21T07:20:24.084Z,19.80
2018-11-21T07:23:04.006Z,23.40
2018-11-21T07:25:43.682Z,24.83
2018-11-21T07:28:24.017Z,23.80
2018-11-21T07:31:03.824Z,23.70
2018-11-21T07:33:46.651Z,25.90
2018-11-21T07:36:24.464Z,25.50
2018-11-21T07:39:04.279Z,23.90
2018-11-21T07:41:43.827Z,24.97
2018-11-21T07:44:24.439Z,24.67
2018-11-21T07:47:04.322Z,23.77
2018-11-21T07:49:43.684Z,24.13
2018-11-21T07:52:24.131Z,24.93
2018-11-21T07:55:04.428Z,25.53
2018-11-21T07:57:45.799Z,24.23
2018-11-21T08:00:26.019Z,23.43
2018-11-21T08:03:05.551Z,25.90
2018-11-21T08:05:47.654Z,22.27
2018-11-21T08:08:50.497Z,23.60
2018-11-21T08:11:50.243Z,21.37
2018-11-21T08:14:52.678Z,23.23
2018-11-21T08:17:50.120Z,19.93
2018-11-21T08:20:49.467Z,20.80
2018-11-21T08:23:47.184Z,19.77
2018-11-21T08:26:46.407Z,23.17
2018-11-21T08:29:26.217Z,20.47
2018-11-21T08:32:06.303Z,19.10
2018-11-21T08:34:46.133Z,19.77
2018-11-21T08:37:25.846Z,20.93
2018-11-21T08:40:05.600Z,19.30
2018-11-21T08:42:45.614Z,20.93
2018-11-21T08:45:25.096Z,19.07
2018-11-21T08:48:05.156Z,21.60
2018-11-21T08:50:44.910Z,19.43
2018-11-21T08:53:24.519Z,19.50
2018-11-21T08:56:04.495Z,16.23
2018-11-21T08:58:44.079Z,19.60
2018-11-21T09:01:24.140Z,20.57
2018-11-21T09:04:04.808Z,20.03
2018-11-21T09:06:45.087Z,19.73
2018-11-21T09:09:25.078Z,19.27
2018-11-21T09:12:08.690Z,19.80
2018-11-21T09:14:44.765Z,19.10
2018-11-21T09:17:25.085Z,19.40
2018-11-21T09:20:05.507Z,17.23
2018-11-21T09:22:45.464Z,18.67
2018-11-21T09:25:25.332Z,15.97
2018-11-21T09:28:05.312Z,19.13
2018-11-21T09:30:45.420Z,16.80
2018-11-21T09:33:25.336Z,16.40
2018-11-21T09:35:52.522Z,18.03
2018-11-21T09:38:19.904Z,15.80
2018-11-21T09:40:48.404Z,18.33
2018-11-21T09:43:35.496Z,18.87
2018-11-21T09:46:17.202Z,16.73
2018-11-21T09:49:15.174Z,17.47
2018-11-21T09:51:54.808Z,16.93
2018-11-21T09:54:34.675Z,17.80
2018-11-21T09:57:14.534Z,18.20
2018-11-21T09:59:54.809Z,15.87
2018-11-21T10:02:34.554Z,17.63
2018-11-21T10:05:14.203Z,12.57
2018-11-21T10:07:54.166Z,14.43
2018-11-21T10:10:34.069Z,18.40
2018-11-21T10:13:13.841Z,15.87
2018-11-21T10:15:53.863Z,17.03
2018-11-21T10:18:34.793Z,17.47
2018-11-21T10:21:17.235Z,15.90
2018-11-21T10:23:57.149Z,17.43
2018-11-21T10:26:37.320Z,16.30
2018-11-21T10:29:16.890Z,18.70
2018-11-21T10:31:57.096Z,16.50
2018-11-21T10:34:37.092Z,17.07
2018-11-21T10:37:16.891Z,18.80
2018-11-21T10:39:56.671Z,18.57
2018-11-21T10:42:36.771Z,17.27
2018-11-21T10:45:16.766Z,16.23
2018-11-21T10:47:56.470Z,16.13
2018-11-21T10:50:36.036Z,15.83
2018-11-21T10:53:16.290Z,16.50
2018-11-21T10:55:55.668Z,16.57
2018-11-21T10:58:35.719Z,16.60
2018-11-21T11:01:35.399Z,15.07
2018-11-21T11:04:35.107Z,12.23
2018-11-21T11:07:40.823Z,16.90
2018-11-21T11:10:39.946Z,15.20
2018-11-21T11:13:39.740Z,16.00
2018-11-21T11:16:42.117Z,14.87
2018-11-21T11:19:31.813Z,13.17
2018-11-21T11:22:31.382Z,15.13
2018-11-21T11:25:33.291Z,16.40
2018-11-21T11:28:23.515Z,15.87
2018-11-21T11:31:14.998Z,14.97
2018-11-21T11:33:58.991Z,18.20
2018-11-21T11:36:48.494Z,14.87
2018-11-21T11:39:44.276Z,13.80
2018-11-21T11:42:43.043Z,16.20
2018-11-21T11:45:31.902Z,14.77
2018-11-21T11:48:17.481Z,16.50
2018-11-21T11:51:05.923Z,15.47
2018-11-21T11:54:00.186Z,15.07
2018-11-21T11:56:45.636Z,15.43
2018-11-21T11:59:45.098Z,13.70
2018-11-21T12:02:23.653Z,15.27
2018-11-21T12:05:18.529Z,16.13
2018-11-21T12:08:13.049Z,15.63
2018-11-21T12:10:58.588Z,15.67
2018-11-21T12:13:56.189Z,16.37
2018-11-21T12:17:03.330Z,11.47
2018-11-21T12:19:49.260Z,11.77
2018-11-21T12:22:50.914Z,13.57
2018-11-21T12:25:43.345Z,14.57
2018-11-21T12:28:30.538Z,13.73
2018-11-21T12:31:33.279Z,12.07
2018-11-21T12:34:14.433Z,11.73
2018-11-21T12:36:57.886Z,15.60
2018-11-21T12:39:54.054Z,14.60
2018-11-21T12:43:00.018Z,15.27
2018-11-21T12:45:46.273Z,12.93
2018-11-21T12:48:35.898Z,15.60
2018-11-21T12:51:38.309Z,16.40
2018-11-21T12:54:25.741Z,15.13
2018-11-21T12:57:09.528Z,13.87
2018-11-21T12:59:53.552Z,13.20
2018-11-21T13:02:38.794Z,14.00
2018-11-21T13:05:37.771Z,14.37
2018-11-21T13:08:36.781Z,17.43
2018-11-21T13:11:42.060Z,15.07
2018-11-21T13:14:22.876Z,16.60
2018-11-21T13:16:59.045Z,12.30
2018-11-21T13:19:44.505Z,13.90
